Edison, Colorado
Current Conditions -  °F | °C
As of 1:56 PM on Tuesday 21 Oct 2014 (Local Time) from KSHM Reporting Station
Clear Clear  
Wind Chill: 68°   Ceiling: Unl
Heat Index: 68°   Visibility: 10mi
Dew Point: 36°   Wind: 17mph
Humidity: 31%   Direction: 160°SSE
Pressure: 30.05"   Gusts: 22mph
Location:  38.697°N, 104.225°W
Report Text: KSHM 211956Z AUTO 16015G19KT 10SM CLR 20/02 A3005 RMK AO2 SLP127 T02000022
Loading
Personal Weather Stations






























Interactive Weather Map
Tropical Storm Tracking
New forecast layout! Learn more

10-Day Weather Forecast

Advertisements
Track Severe Weather on mobile